Time,TemperatureF,DewpointF,PressureIn,WindDirection,WindDirectionDegrees,WindSpeedMPH,WindSpeedGustMPH,Humidity,HourlyPrecipIn,Conditions,Clouds,dailyrainin,SoftwareType,DateUTC
2013-03-29 00:05:00,50.4,46.4,29.94,WNW,287,0.0,0.0,86,0.00,,,-99.99,Weather View 32 v60,2013-03-29 07:05:00,
2013-03-29 00:13:00,50.2,46.5,29.94,WNW,287,0.0,0.0,87,0.00,,,-99.99,Weather View 32 v60,2013-03-29 07:13:00,
2013-03-29 00:23:00,50.0,46.3,29.94,WNW,287,0.0,0.0,87,0.00,,,-99.99,Weather View 32 v60,2013-03-29 07:23:00,
2013-03-29 00:28:00,50.0,46.3,29.94,WNW,287,0.0,0.0,87,0.00,,,-99.99,Weather View 32 v60,2013-03-29 07:28:00,
2013-03-29 00:38:00,49.9,46.2,29.94,WNW,287,0.0,0.0,87,0.00,,,-99.99,Weather View 32 v60,2013-03-29 07:38:00,
2013-03-29 00:48:00,49.7,46.0,29.94,WNW,287,0.0,0.0,87,0.00,,,-99.99,Weather View 32 v60,2013-03-29 07:48:00,
2013-03-29 00:58:00,49.5,45.8,29.94,WNW,287,0.0,0.0,87,0.00,,,-99.99,Weather View 32 v60,2013-03-29 07:58:00,
2013-03-29 01:06:00,49.5,45.8,29.94,WNW,287,0.0,0.0,87,0.00,,,-99.99,Weather View 32 v60,2013-03-29 08:06:00,
2013-03-29 01:13:00,49.3,45.9,29.94,WNW,287,0.0,0.0,88,0.00,,,-99.99,Weather View 32 v60,2013-03-29 08:13:00,
2013-03-29 01:18:00,49.2,45.8,29.94,WNW,287,0.0,0.0,88,0.00,,,-99.99,Weather View 32 v60,2013-03-29 08:18:00,
2013-03-29 01:23:00,49.0,45.6,29.94,WNW,287,0.0,0.0,88,0.00,,,-99.99,Weather View 32 v60,2013-03-29 08:23:00,
2013-03-29 01:33:00,48.9,45.5,29.95,WNW,287,0.0,0.0,88,0.00,,,-99.99,Weather View 32 v60,2013-03-29 08:33:00,
2013-03-29 01:43:00,48.8,45.7,29.94,WNW,287,0.0,0.0,89,0.00,,,-99.99,Weather View 32 v60,2013-03-29 08:43:00,
2013-03-29 01:48:00,48.7,45.6,29.94,WNW,287,0.0,0.0,89,0.00,,,-99.99,Weather View 32 v60,2013-03-29 08:48:00,
2013-03-29 01:58:00,48.6,45.5,29.94,WNW,287,0.0,0.0,89,0.00,,,-99.99,Weather View 32 v60,2013-03-29 08:58:00,
2013-03-29 02:03:00,48.5,45.4,29.94,WNW,287,0.0,0.0,89,0.00,,,-99.99,Weather View 32 v60,2013-03-29 09:03:00,
2013-03-29 02:13:00,48.3,45.2,29.94,WNW,287,0.0,0.0,89,0.00,,,-99.99,Weather View 32 v60,2013-03-29 09:13:00,
2013-03-29 02:23:00,48.1,45.0,29.94,WNW,287,0.0,0.0,89,0.00,,,-99.99,Weather View 32 v60,2013-03-29 09:23:00,
2013-03-29 02:28:00,47.9,44.8,29.94,WNW,287,0.0,0.0,89,0.00,,,-99.99,Weather View 32 v60,2013-03-29 09:28:00,
2013-03-29 02:38:00,47.7,44.6,29.94,WNW,287,0.0,0.0,89,0.00,,,-99.99,Weather View 32 v60,2013-03-29 09:38:00,
2013-03-29 02:43:00,47.6,44.5,29.94,WNW,287,0.0,0.0,89,0.00,,,-99.99,Weather View 32 v60,2013-03-29 09:43:00,
2013-03-29 02:53:00,47.5,44.4,29.94,WNW,287,0.0,0.0,89,0.00,,,-99.99,Weather View 32 v60,2013-03-29 09:53:00,
2013-03-29 02:58:00,47.4,44.3,29.94,WNW,287,0.0,0.0,89,0.00,,,-99.99,Weather View 32 v60,2013-03-29 09:58:00,
2013-03-29 03:07:00,47.3,44.2,29.94,WNW,287,0.0,0.0,89,0.00,,,-99.99,Weather View 32 v60,2013-03-29 10:07:00,
2013-03-29 03:13:00,47.3,44.2,29.94,WNW,287,0.0,0.0,89,0.00,,,-99.99,Weather View 32 v60,2013-03-29 10:13:00,
2013-03-29 03:23:00,47.2,44.1,29.94,WNW,287,0.0,0.0,89,0.00,,,-99.99,Weather View 32 v60,2013-03-29 10:23:00,
2013-03-29 03:33:00,46.9,43.8,29.93,WNW,287,0.0,0.0,89,0.00,,,-99.99,Weather View 32 v60,2013-03-29 10:33:00,
2013-03-29 03:38:00,46.9,43.8,29.93,WNW,287,0.0,0.0,89,0.00,,,-99.99,Weather View 32 v60,2013-03-29 10:38:00,
2013-03-29 03:48:00,46.6,43.5,29.93,WNW,287,0.0,0.0,89,0.00,,,-99.99,Weather View 32 v60,2013-03-29 10:48:00,
2013-03-29 03:53:00,46.6,43.5,29.93,WNW,287,0.0,0.0,89,0.00,,,-99.99,Weather View 32 v60,2013-03-29 10:53:00,
2013-03-29 04:03:00,46.5,43.4,29.93,WNW,287,0.0,0.0,89,0.00,,,-99.99,Weather View 32 v60,2013-03-29 11:03:00,
2013-03-29 04:08:00,46.5,43.4,29.93,WNW,287,0.0,0.0,89,0.00,,,-99.99,Weather View 32 v60,2013-03-29 11:08:00,
2013-03-29 04:18:00,46.4,43.0,29.93,WNW,287,0.0,0.0,88,0.00,,,-99.99,Weather View 32 v60,2013-03-29 11:18:00,
2013-03-29 04:28:00,46.1,42.4,29.93,WNW,287,0.0,0.0,87,0.00,,,-99.99,Weather View 32 v60,2013-03-29 11:28:00,
2013-03-29 04:33:00,46.1,42.4,29.93,WNW,287,0.0,0.0,87,0.00,,,-99.99,Weather View 32 v60,2013-03-29 11:33:00,
2013-03-29 04:43:00,45.9,42.2,29.93,WNW,287,0.0,0.0,87,0.00,,,-99.99,Weather View 32 v60,2013-03-29 11:43:00,
2013-03-29 04:48:00,45.9,42.5,29.93,WNW,287,0.0,0.0,88,0.00,,,-99.99,Weather View 32 v60,2013-03-29 11:48:00,
2013-03-29 04:58:00,45.8,42.1,29.93,WNW,287,0.0,0.0,87,0.00,,,-99.99,Weather View 32 v60,2013-03-29 11:58:00,
2013-03-29 05:03:00,45.8,42.1,29.94,WNW,287,0.0,0.0,87,0.00,,,-99.99,Weather View 32 v60,2013-03-29 12:03:00,
2013-03-29 05:08:00,45.8,42.4,29.93,WNW,287,0.0,0.0,88,0.00,,,-99.99,Weather View 32 v60,2013-03-29 12:08:00,
2013-03-29 05:18:00,45.6,42.2,29.93,WNW,287,0.0,0.0,88,0.00,,,-99.99,Weather View 32 v60,2013-03-29 12:18:00,
2013-03-29 05:28:00,45.5,41.8,29.93,WNW,287,0.0,0.0,87,0.00,,,-99.99,Weather View 32 v60,2013-03-29 12:28:00,
2013-03-29 05:38:00,45.4,42.0,29.94,WNW,287,0.0,0.0,88,0.00,,,-99.99,Weather View 32 v60,2013-03-29 12:38:00,
2013-03-29 05:43:00,45.3,42.0,29.94,WNW,287,0.0,0.0,88,0.00,,,-99.99,Weather View 32 v60,2013-03-29 12:43:00,
2013-03-29 05:53:00,45.2,41.9,29.94,WNW,287,0.0,0.0,88,0.00,,,-99.99,Weather View 32 v60,2013-03-29 12:53:00,
2013-03-29 05:58:00,45.2,41.9,29.94,WNW,287,0.0,0.0,88,0.00,,,-99.99,Weather View 32 v60,2013-03-29 12:58:00,
2013-03-29 06:03:00,45.2,41.9,29.94,WNW,287,0.0,0.0,88,0.00,,,-99.99,Weather View 32 v60,2013-03-29 13:03:00,
2013-03-29 06:08:00,45.1,41.8,29.94,WNW,287,0.0,0.0,88,0.00,,,-99.99,Weather View 32 v60,2013-03-29 13:08:00,
2013-03-29 06:13:00,45.1,41.8,29.94,WNW,287,0.0,0.0,88,0.00,,,-99.99,Weather View 32 v60,2013-03-29 13:13:00,
2013-03-29 06:23:00,45.0,41.4,29.94,WNW,287,0.0,0.0,87,0.00,,,-99.99,Weather View 32 v60,2013-03-29 13:23:00,
2013-03-29 06:33:00,44.9,41.6,29.94,WNW,287,0.0,0.0,88,0.00,,,-99.99,Weather View 32 v60,2013-03-29 13:33:00,
2013-03-29 06:38:00,44.8,41.2,29.94,WNW,287,0.0,0.0,87,0.00,,,-99.99,Weather View 32 v60,2013-03-29 13:38:00,
2013-03-29 06:43:00,44.9,41.3,29.94,WNW,287,0.0,0.0,87,0.00,,,-99.99,Weather View 32 v60,2013-03-29 13:43:00,
2013-03-29 06:53:00,44.9,41.6,29.94,WNW,287,0.0,0.0,88,0.00,,,-99.99,Weather View 32 v60,2013-03-29 13:53:00,
2013-03-29 07:03:00,44.8,41.2,29.94,WNW,287,0.0,0.0,87,0.00,,,-99.99,Weather View 32 v60,2013-03-29 14:03:00,
2013-03-29 07:08:00,44.8,41.5,29.94,WNW,287,0.0,0.0,88,0.00,,,-99.99,Weather View 32 v60,2013-03-29 14:08:00,
2013-03-29 07:18:00,44.7,41.4,29.95,WNW,287,0.0,0.0,88,0.00,,,-99.99,Weather View 32 v60,2013-03-29 14:18:00,
2013-03-29 07:28:00,44.7,41.4,29.95,WNW,287,0.0,0.0,88,0.00,,,-99.99,Weather View 32 v60,2013-03-29 14:28:00,
2013-03-29 07:33:00,44.8,41.5,29.94,WNW,287,0.0,0.0,88,0.00,,,-99.99,Weather View 32 v60,2013-03-29 14:33:00,
2013-03-29 07:43:00,45.1,41.8,29.94,WNW,287,0.0,0.0,88,0.00,,,-99.99,Weather View 32 v60,2013-03-29 14:43:00,
2013-03-29 07:53:00,45.6,42.2,29.95,WNW,287,0.0,0.0,88,0.00,,,-99.99,Weather View 32 v60,2013-03-29 14:53:00,
2013-03-29 08:03:00,46.0,42.9,29.95,WNW,287,0.0,0.0,89,0.00,,,-99.99,Weather View 32 v60,2013-03-29 15:03:00,
2013-03-29 08:08:00,46.2,43.1,29.94,WNW,287,0.0,0.0,89,0.00,,,-99.99,Weather View 32 v60,2013-03-29 15:08:00,
2013-03-29 08:18:00,46.7,43.6,29.95,WNW,287,0.0,0.0,89,0.00,,,-99.99,Weather View 32 v60,2013-03-29 15:18:00,
2013-03-29 08:23:00,46.9,43.8,29.95,WNW,287,0.0,0.0,89,0.00,,,-99.99,Weather View 32 v60,2013-03-29 15:23:00,
2013-03-29 08:33:00,47.3,44.5,29.95,WNW,287,0.0,0.0,90,0.00,,,-99.99,Weather View 32 v60,2013-03-29 15:33:00,
2013-03-29 08:38:00,47.6,44.8,29.95,WNW,287,0.0,0.0,90,0.00,,,-99.99,Weather View 32 v60,2013-03-29 15:38:00,
2013-03-29 08:48:00,47.9,45.1,29.95,WNW,287,0.0,0.0,90,0.00,,,-99.99,Weather View 32 v60,2013-03-29 15:48:00,
2013-03-29 08:58:00,48.4,45.6,29.95,WNW,287,0.0,0.0,90,0.00,,,-99.99,Weather View 32 v60,2013-03-29 15:58:00,
2013-03-29 09:03:00,48.7,45.9,29.95,WNW,287,0.0,0.0,90,0.00,,,-99.99,Weather View 32 v60,2013-03-29 16:03:00,
2013-03-29 09:13:00,49.3,46.5,29.95,WNW,287,0.0,0.0,90,0.00,,,-99.99,Weather View 32 v60,2013-03-29 16:13:00,
2013-03-29 09:18:00,49.6,46.8,29.95,WNW,287,0.0,0.0,90,0.00,,,-99.99,Weather View 32 v60,2013-03-29 16:18:00,
2013-03-29 09:28:00,50.3,47.5,29.95,WNW,287,0.0,0.0,90,0.00,,,-99.99,Weather View 32 v60,2013-03-29 16:28:00,
2013-03-29 09:38:00,51.2,48.7,29.95,WNW,287,0.0,0.0,91,0.00,,,-99.99,Weather View 32 v60,2013-03-29 16:38:00,
2013-03-29 09:43:00,51.6,49.1,29.95,WNW,287,0.0,0.0,91,0.00,,,-99.99,Weather View 32 v60,2013-03-29 16:43:00,
2013-03-29 09:53:00,52.4,49.8,29.95,WNW,287,0.0,0.0,91,0.00,,,-99.99,Weather View 32 v60,2013-03-29 16:53:00,
2013-03-29 09:58:00,52.8,50.5,29.95,WNW,287,0.0,0.0,92,0.00,,,-99.99,Weather View 32 v60,2013-03-29 16:58:00,
2013-03-29 10:03:00,53.2,50.9,29.95,WNW,287,0.0,0.0,92,0.00,,,-99.99,Weather View 32 v60,2013-03-29 17:03:00,
2013-03-29 10:11:00,53.6,51.3,29.95,WNW,287,0.0,0.0,92,0.00,,,-99.99,Weather View 32 v60,2013-03-29 17:11:00,
2013-03-29 10:18:00,54.3,52.0,29.95,WNW,287,0.0,0.0,92,0.00,,,-99.99,Weather View 32 v60,2013-03-29 17:18:00,
2013-03-29 10:28:00,54.7,52.1,29.95,WNW,287,0.0,0.0,91,0.00,,,-99.99,Weather View 32 v60,2013-03-29 17:28:00,
2013-03-29 10:38:00,55.6,52.7,29.95,NNW,346,0.0,0.0,90,0.00,,,-99.99,Weather View 32 v60,2013-03-29 17:38:00,
2013-03-29 10:43:00,56.4,52.9,29.94,NNW,347,0.0,0.0,88,0.00,,,-99.99,Weather View 32 v60,2013-03-29 17:43:00,
2013-03-29 10:53:00,57.7,51.9,29.95,NNW,347,0.0,0.0,81,0.00,,,-99.99,Weather View 32 v60,2013-03-29 17:53:00,
2013-03-29 10:58:00,58.3,51.5,29.95,SW,229,0.0,0.0,78,0.00,,,-99.99,Weather View 32 v60,2013-03-29 17:58:00,
2013-03-29 11:08:00,59.7,51.4,29.95,SSW,211,0.0,0.0,74,0.00,,,-99.99,Weather View 32 v60,2013-03-29 18:08:00,
2013-03-29 11:13:00,60.3,51.2,29.95,SW,225,0.0,0.0,72,0.00,,,-99.99,Weather View 32 v60,2013-03-29 18:13:00,
2013-03-29 11:18:00,61.0,50.7,29.95,West,268,0.0,0.0,69,0.00,,,-99.99,Weather View 32 v60,2013-03-29 18:18:00,
2013-03-29 11:28:00,61.9,51.6,29.94,NW,326,0.0,0.0,69,0.00,,,-99.99,Weather View 32 v60,2013-03-29 18:28:00,
2013-03-29 11:38:00,63.0,51.4,29.94,NNW,340,8.0,10.0,66,0.00,,,-99.99,Weather View 32 v60,2013-03-29 18:38:00,
2013-03-29 11:48:00,63.6,51.2,29.94,North,0,2.0,10.0,64,0.00,,,-99.99,Weather View 32 v60,2013-03-29 18:48:00,
2013-03-29 11:53:00,63.9,51.5,29.94,NNW,328,4.0,10.0,64,0.00,,,-99.99,Weather View 32 v60,2013-03-29 18:53:00,
2013-03-29 12:03:00,64.4,51.9,29.94,WSW,239,0.0,10.0,64,0.00,,,-99.99,Weather View 32 v60,2013-03-29 19:03:00,
2013-03-29 12:08:00,64.7,52.2,29.94,North,357,4.0,10.0,64,0.00,,,-99.99,Weather View 32 v60,2013-03-29 19:08:00,
2013-03-29 12:18:00,65.6,52.6,29.94,NNW,332,3.0,10.0,63,0.00,,,-99.99,Weather View 32 v60,2013-03-29 19:18:00,
2013-03-29 12:28:00,66.2,53.2,29.94,West,266,2.0,10.0,63,0.00,,,-99.99,Weather View 32 v60,2013-03-29 19:28:00,
2013-03-29 12:33:00,66.4,53.4,29.94,SW,232,4.0,10.0,63,0.00,,,-99.99,Weather View 32 v60,2013-03-29 19:33:00,
2013-03-29 12:43:00,67.1,53.6,29.93,SW,223,0.0,11.0,62,0.00,,,-99.99,Weather View 32 v60,2013-03-29 19:43:00,
2013-03-29 12:48:00,67.3,53.8,29.93,West,260,0.0,11.0,62,0.00,,,-99.99,Weather View 32 v60,2013-03-29 19:48:00,
2013-03-29 12:58:00,67.9,53.9,29.93,WNW,286,0.0,11.0,61,0.00,,,-99.99,Weather View 32 v60,2013-03-29 19:58:00,
2013-03-29 13:08:00,68.5,54.0,29.93,WNW,302,2.0,11.0,60,0.00,,,-99.99,Weather View 32 v60,2013-03-29 20:08:00,
2013-03-29 13:13:00,68.9,54.4,29.92,SW,236,1.0,11.0,60,0.00,,,-99.99,Weather View 32 v60,2013-03-29 20:13:00,
2013-03-29 13:23:00,70.0,54.0,29.92,NNW,345,0.0,11.0,57,0.00,,,-99.99,Weather View 32 v60,2013-03-29 20:23:00,
2013-03-29 13:33:00,70.9,53.4,29.92,WNW,298,0.0,11.0,54,0.00,,,-99.99,Weather View 32 v60,2013-03-29 20:33:00,
2013-03-29 13:38:00,70.9,53.9,29.92,WNW,298,0.0,11.0,55,0.00,,,-99.99,Weather View 32 v60,2013-03-29 20:38:00,
2013-03-29 13:48:00,70.9,53.9,29.91,NNW,336,2.0,12.0,55,0.00,,,-99.99,Weather View 32 v60,2013-03-29 20:48:00,
2013-03-29 13:53:00,70.8,53.8,29.92,SW,229,0.0,12.0,55,0.00,,,-99.99,Weather View 32 v60,2013-03-29 20:53:00,
2013-03-29 14:03:00,70.9,53.4,29.91,North,0,0.0,12.0,54,0.00,,,-99.99,Weather View 32 v60,2013-03-29 21:03:00,
2013-03-29 14:08:00,71.4,53.8,29.91,North,354,5.0,12.0,54,0.00,,,-99.99,Weather View 32 v60,2013-03-29 21:08:00,
2013-03-29 14:14:00,71.9,54.3,29.91,NNW,338,5.0,12.0,54,0.00,,,-99.99,Weather View 32 v60,2013-03-29 21:14:00,
2013-03-29 14:23:00,72.7,53.5,29.90,West,265,0.0,12.0,51,0.00,,,-99.99,Weather View 32 v60,2013-03-29 21:23:00,
2013-03-29 14:33:00,73.5,54.2,29.90,NW,314,4.0,12.0,51,0.00,,,-99.99,Weather View 32 v60,2013-03-29 21:33:00,
2013-03-29 14:43:00,74.2,53.8,29.89,SSW,213,3.0,11.0,49,0.00,,,-99.99,Weather View 32 v60,2013-03-29 21:43:00,
2013-03-29 14:48:00,74.9,53.8,29.89,WNW,283,3.0,11.0,48,0.00,,,-99.99,Weather View 32 v60,2013-03-29 21:48:00,
2013-03-29 14:58:00,75.6,53.9,29.89,West,281,3.0,11.0,47,0.00,,,-99.99,Weather View 32 v60,2013-03-29 21:58:00,
2013-03-29 15:03:00,75.6,54.5,29.89,NW,321,1.0,11.0,48,0.00,,,-99.99,Weather View 32 v60,2013-03-29 22:03:00,
2013-03-29 15:13:00,76.5,54.1,29.89,NE,37,0.0,11.0,46,0.00,,,-99.99,Weather View 32 v60,2013-03-29 22:13:00,
2013-03-29 15:18:00,76.8,55.0,29.88,SW,224,7.0,11.0,47,0.00,,,-99.99,Weather View 32 v60,2013-03-29 22:18:00,
2013-03-29 15:28:00,77.2,54.1,29.88,WSW,238,4.0,10.0,45,0.00,,,-99.99,Weather View 32 v60,2013-03-29 22:28:00,
2013-03-29 15:38:00,76.8,54.4,29.88,NNW,331,0.0,10.0,46,0.00,,,-99.99,Weather View 32 v60,2013-03-29 22:38:00,
2013-03-29 15:48:00,76.5,54.1,29.88,South,182,0.0,10.0,46,0.00,,,-99.99,Weather View 32 v60,2013-03-29 22:48:00,
2013-03-29 15:53:00,76.7,54.3,29.87,SW,233,0.0,10.0,46,0.00,,,-99.99,Weather View 32 v60,2013-03-29 22:53:00,
2013-03-29 16:03:00,76.6,54.8,29.87,NW,321,0.0,9.0,47,0.00,,,-99.99,Weather View 32 v60,2013-03-29 23:03:00,
2013-03-29 16:08:00,76.4,54.0,29.87,NW,307,0.0,9.0,46,0.00,,,-99.99,Weather View 32 v60,2013-03-29 23:08:00,
2013-03-29 16:15:00,76.0,54.2,29.87,West,262,0.0,9.0,47,0.00,,,-99.99,Weather View 32 v60,2013-03-29 23:15:00,
2013-03-29 16:23:00,76.1,53.8,29.88,SW,227,1.0,9.0,46,0.00,,,-99.99,Weather View 32 v60,2013-03-29 23:23:00,
2013-03-29 16:28:00,76.0,53.1,29.88,NNW,341,0.0,7.0,45,0.00,,,-99.99,Weather View 32 v60,2013-03-29 23:28:00,
2013-03-29 16:33:00,75.6,53.9,29.87,South,175,4.0,7.0,47,0.00,,,-99.99,Weather View 32 v60,2013-03-29 23:33:00,
2013-03-29 16:43:00,75.9,53.6,29.87,SSE,167,0.0,7.0,46,0.00,,,-99.99,Weather View 32 v60,2013-03-29 23:43:00,
2013-03-29 16:48:00,76.1,53.8,29.87,SW,234,0.0,7.0,46,0.00,,,-99.99,Weather View 32 v60,2013-03-29 23:48:00,
2013-03-29 16:59:00,76.2,52.6,29.86,SW,223,0.0,7.0,44,0.00,,,-99.99,Weather View 32 v60,2013-03-29 23:59:00,
2013-03-29 17:08:00,75.8,53.5,29.86,SW,223,0.0,7.0,46,0.00,,,-99.99,Weather View 32 v60,2013-03-30 00:08:00,
2013-03-29 17:13:00,75.7,53.4,29.86,SW,223,0.0,7.0,46,0.00,,,-99.99,Weather View 32 v60,2013-03-30 00:13:00,
2013-03-29 17:23:00,76.4,53.4,29.86,SW,224,0.0,7.0,45,0.00,,,-99.99,Weather View 32 v60,2013-03-30 00:23:00,
2013-03-29 17:28:00,76.7,54.3,29.86,SW,224,0.0,7.0,46,0.00,,,-99.99,Weather View 32 v60,2013-03-30 00:28:00,
2013-03-29 17:33:00,76.5,54.1,29.86,South,188,5.0,7.0,46,0.00,,,-99.99,Weather View 32 v60,2013-03-30 00:33:00,
2013-03-29 17:43:00,76.2,54.4,29.86,SSE,168,0.0,8.0,47,0.00,,,-99.99,Weather View 32 v60,2013-03-30 00:43:00,
2013-03-29 17:53:00,75.1,54.0,29.86,SSE,165,4.0,8.0,48,0.00,,,-99.99,Weather View 32 v60,2013-03-30 00:53:00,
2013-03-29 17:58:00,74.6,53.6,29.86,SSE,149,3.0,8.0,48,0.00,,,-99.99,Weather View 32 v60,2013-03-30 00:58:00,
2013-03-29 18:08:00,73.4,53.6,29.86,SE,143,4.0,8.0,50,0.00,,,-99.99,Weather View 32 v60,2013-03-30 01:08:00,
2013-03-29 18:13:00,72.9,53.7,29.86,SSE,165,2.0,8.0,51,0.00,,,-99.99,Weather View 32 v60,2013-03-30 01:13:00,
2013-03-29 18:23:00,72.1,53.5,29.86,SSE,165,0.0,8.0,52,0.00,,,-99.99,Weather View 32 v60,2013-03-30 01:23:00,
2013-03-29 18:28:00,71.7,53.1,29.86,SSE,165,0.0,8.0,52,0.00,,,-99.99,Weather View 32 v60,2013-03-30 01:28:00,
2013-03-29 18:38:00,71.1,55.0,29.86,SSE,165,0.0,8.0,57,0.00,,,-99.99,Weather View 32 v60,2013-03-30 01:38:00,
2013-03-29 18:43:00,70.8,54.8,29.87,SSE,165,0.0,8.0,57,0.00,,,-99.99,Weather View 32 v60,2013-03-30 01:43:00,
2013-03-29 18:53:00,70.0,55.0,29.87,SSE,165,0.0,8.0,59,0.00,,,-99.99,Weather View 32 v60,2013-03-30 01:53:00,
2013-03-29 18:58:00,69.7,54.2,29.87,SSE,165,0.0,6.0,58,0.00,,,-99.99,Weather View 32 v60,2013-03-30 01:58:00,
2013-03-29 19:03:00,69.3,54.8,29.87,SSE,165,0.0,6.0,60,0.00,,,-99.99,Weather View 32 v60,2013-03-30 02:03:00,
2013-03-29 19:08:00,68.9,54.4,29.86,SSE,165,0.0,6.0,60,0.00,,,-99.99,Weather View 32 v60,2013-03-30 02:08:00,
2013-03-29 19:17:00,68.4,54.4,29.86,SSE,165,0.0,6.0,61,0.00,,,-99.99,Weather View 32 v60,2013-03-30 02:17:00,
2013-03-29 19:23:00,67.4,54.3,29.86,SSE,165,0.0,3.0,63,0.00,,,-99.99,Weather View 32 v60,2013-03-30 02:23:00,
2013-03-29 19:33:00,66.6,53.6,29.86,SSE,165,0.0,0.0,63,0.00,,,-99.99,Weather View 32 v60,2013-03-30 02:33:00,
2013-03-29 19:43:00,65.9,53.8,29.86,SSE,165,1.0,1.0,65,0.00,,,-99.99,Weather View 32 v60,2013-03-30 02:43:00,
2013-03-29 19:48:00,65.7,53.6,29.86,SSE,165,0.0,1.0,65,0.00,,,-99.99,Weather View 32 v60,2013-03-30 02:48:00,
2013-03-29 19:58:00,65.2,53.1,29.87,SSE,165,0.0,1.0,65,0.00,,,-99.99,Weather View 32 v60,2013-03-30 02:58:00,
2013-03-29 20:03:00,65.0,52.9,29.87,SSE,165,0.0,1.0,65,0.00,,,-99.99,Weather View 32 v60,2013-03-30 03:03:00,
2013-03-29 20:13:00,64.5,52.9,29.86,SSE,165,0.0,1.0,66,0.00,,,-99.99,Weather View 32 v60,2013-03-30 03:13:00,
2013-03-29 20:18:00,64.2,53.0,29.87,SSE,165,0.0,1.0,67,0.00,,,-99.99,Weather View 32 v60,2013-03-30 03:18:00,
2013-03-29 20:23:00,63.9,52.7,29.87,SSE,165,0.0,1.0,67,0.00,,,-99.99,Weather View 32 v60,2013-03-30 03:23:00,
2013-03-29 20:28:00,63.6,53.2,29.87,SSE,165,0.0,1.0,69,0.00,,,-99.99,Weather View 32 v60,2013-03-30 03:28:00,
2013-03-29 20:33:00,63.4,53.0,29.88,SSE,165,0.0,1.0,69,0.00,,,-99.99,Weather View 32 v60,2013-03-30 03:33:00,
2013-03-29 20:43:00,63.0,53.0,29.88,SSE,165,0.0,1.0,70,0.00,,,-99.99,Weather View 32 v60,2013-03-30 03:43:00,
2013-03-29 20:53:00,62.6,53.0,29.88,SSE,165,0.0,0.0,71,0.00,,,-99.99,Weather View 32 v60,2013-03-30 03:53:00,
2013-03-29 20:58:00,62.5,53.3,29.89,SSE,165,0.0,0.0,72,0.00,,,-99.99,Weather View 32 v60,2013-03-30 03:58:00,
2013-03-29 21:03:00,62.4,54.0,29.89,SSE,165,0.0,0.0,74,0.00,,,-99.99,Weather View 32 v60,2013-03-30 04:03:00,
2013-03-29 21:13:00,62.1,53.3,29.89,SSE,165,0.0,0.0,73,0.00,,,-99.99,Weather View 32 v60,2013-03-30 04:13:00,
2013-03-29 21:18:00,62.1,53.7,29.89,SSE,165,0.0,0.0,74,0.00,,,-99.99,Weather View 32 v60,2013-03-30 04:18:00,
2013-03-29 21:23:00,61.9,53.5,29.89,SSE,165,0.0,0.0,74,0.00,,,-99.99,Weather View 32 v60,2013-03-30 04:23:00,
2013-03-29 21:33:00,61.6,53.6,29.89,SSE,165,0.0,0.0,75,0.00,,,-99.99,Weather View 32 v60,2013-03-30 04:33:00,
2013-03-29 21:38:00,61.5,54.2,29.89,SSE,165,0.0,0.0,77,0.00,,,-99.99,Weather View 32 v60,2013-03-30 04:38:00,
2013-03-29 21:48:00,61.2,53.6,29.89,SSE,165,0.0,0.0,76,0.00,,,-99.99,Weather View 32 v60,2013-03-30 04:48:00,
2013-03-29 21:53:00,61.1,53.5,29.90,SSE,165,0.0,0.0,76,0.00,,,-99.99,Weather View 32 v60,2013-03-30 04:53:00,
2013-03-29 22:03:00,60.9,53.3,29.90,SSE,165,0.0,0.0,76,0.00,,,-99.99,Weather View 32 v60,2013-03-30 05:03:00,
2013-03-29 22:08:00,60.7,53.4,29.90,SSE,165,0.0,0.0,77,0.00,,,-99.99,Weather View 32 v60,2013-03-30 05:08:00,
2013-03-29 22:18:00,60.4,53.1,29.90,SSE,165,0.0,0.0,77,0.00,,,-99.99,Weather View 32 v60,2013-03-30 05:18:00,
2013-03-29 22:23:00,60.4,53.1,29.91,SSE,165,0.0,0.0,77,0.00,,,-99.99,Weather View 32 v60,2013-03-30 05:23:00,
2013-03-29 22:33:00,60.1,52.8,29.90,SSE,165,0.0,0.0,77,0.00,,,-99.99,Weather View 32 v60,2013-03-30 05:33:00,
2013-03-29 22:43:00,59.8,53.3,29.90,SSE,165,0.0,0.0,79,0.00,,,-99.99,Weather View 32 v60,2013-03-30 05:43:00,
2013-03-29 22:48:00,59.8,53.3,29.90,SSE,165,0.0,0.0,79,0.00,,,-99.99,Weather View 32 v60,2013-03-30 05:48:00,
2013-03-29 22:58:00,59.7,52.8,29.90,SSW,207,1.0,5.0,78,0.00,,,-99.99,Weather View 32 v60,2013-03-30 05:58:00,
2013-03-29 23:03:00,59.7,52.5,29.89,North,0,0.0,5.0,77,0.00,,,-99.99,Weather View 32 v60,2013-03-30 06:03:00,
2013-03-29 23:08:00,59.7,52.8,29.90,SSE,162,1.0,5.0,78,0.00,,,-99.99,Weather View 32 v60,2013-03-30 06:08:00,
2013-03-29 23:18:00,59.7,53.2,29.90,SSE,162,2.0,5.0,79,0.00,,,-99.99,Weather View 32 v60,2013-03-30 06:18:00,
2013-03-29 23:28:00,59.5,53.0,29.90,SSW,207,0.0,5.0,79,0.00,,,-99.99,Weather View 32 v60,2013-03-30 06:28:00,
2013-03-29 23:33:00,59.3,52.8,29.91,SSW,207,0.0,5.0,79,0.00,,,-99.99,Weather View 32 v60,2013-03-30 06:33:00,
2013-03-29 23:43:00,59.2,53.0,29.90,SSW,207,0.0,5.0,80,0.00,,,-99.99,Weather View 32 v60,2013-03-30 06:43:00,
2013-03-29 23:48:00,59.1,52.9,29.90,SSW,207,0.0,5.0,80,0.00,,,-99.99,Weather View 32 v60,2013-03-30 06:48:00,
2013-03-29 23:58:00,58.9,52.7,29.91,SSW,207,0.0,5.0,80,0.00,,,-99.99,Weather View 32 v60,2013-03-30 06:58:00,